Terminal Aerodrome Forecast
Issued by NWS Cleveland, OH

Home | Current Version | Previous Version | Text Only | Print | Product List | Glossary On
Versions: 1 2 3 4 5 6 7 8 9 10 11 12 13 14 15 16 17
000
FTUS41 KCLE 060242 AAA
TAFCLE
TAF AMD
KCLE 060242Z 0603/0706 VRB03KT P6SM SCT150 BKN200
      TEMPO 0610/0612 6SM BR
     FM061600 33005KT P6SM SCT150 BKN200
     FM062100 01008KT P6SM SCT050 BKN200
     FM070100 12005KT P6SM BKN050 OVC150=

USA.gov is the U.S. government's official web portal to all federal, state and local government web resources and services.